createdAt,value
2018-06-29T00:02:20.420Z,101890.63
2018-06-29T00:05:23.180Z,101887.77
2018-06-29T00:08:25.394Z,101889.96
2018-06-29T00:11:27.471Z,101891.94
2018-06-29T00:14:29.966Z,101890.45
2018-06-29T00:17:32.964Z,101889.76
2018-06-29T00:20:35.544Z,101883.22
2018-06-29T00:23:39.019Z,101888.07
2018-06-29T00:26:41.426Z,101891.46
2018-06-29T00:29:43.576Z,101891.21
2018-06-29T00:32:45.924Z,101889.41
2018-06-29T00:35:48.109Z,101889.60
2018-06-29T00:38:50.222Z,101892.84
2018-06-29T00:41:52.188Z,101896.57
2018-06-29T00:44:54.636Z,101889.68
2018-06-29T00:47:57.181Z,101889.09
2018-06-29T00:50:59.612Z,101886.49
2018-06-29T00:54:02.723Z,101883.17
2018-06-29T00:57:05.204Z,101882.88
2018-06-29T01:00:08.219Z,101878.08
2018-06-29T01:03:10.647Z,101884.93
2018-06-29T01:06:12.875Z,101888.60
2018-06-29T01:09:15.363Z,101889.33
2018-06-29T01:12:17.348Z,101883.09
2018-06-29T01:15:19.748Z,101888.96
2018-06-29T01:18:21.848Z,101892.05
2018-06-29T01:21:24.270Z,101894.54
2018-06-29T01:24:26.423Z,101890.57
2018-06-29T01:27:29.811Z,101886.65
2018-06-29T01:30:33.143Z,101889.31
2018-06-29T01:33:35.467Z,101887.22
2018-06-29T01:37:01.445Z,101880.44
2018-06-29T01:40:04.433Z,101871.17
2018-06-29T01:43:06.517Z,101865.67
2018-06-29T01:46:09.030Z,101865.03
2018-06-29T01:49:11.555Z,101864.57
2018-06-29T01:52:13.875Z,101869.10
2018-06-29T01:55:29.203Z,101869.23
2018-06-29T01:58:32.109Z,101863.87
2018-06-29T02:01:34.670Z,101859.91
2018-06-29T02:04:37.038Z,101854.40
2018-06-29T02:07:39.171Z,101853.59
2018-06-29T02:10:41.203Z,101855.25
2018-06-29T02:13:44.606Z,101851.53
2018-06-29T02:16:46.679Z,101854.97
2018-06-29T02:19:48.733Z,101851.11
2018-06-29T02:22:51.096Z,101850.87
2018-06-29T02:25:53.248Z,101846.27
2018-06-29T02:28:55.853Z,101848.50
2018-06-29T02:31:58.225Z,101845.43
2018-06-29T02:35:00.331Z,101838.37
2018-06-29T02:38:04.086Z,101838.41
2018-06-29T02:41:06.343Z,101833.10
2018-06-29T02:44:08.359Z,101822.23
2018-06-29T02:47:10.357Z,101823.01
2018-06-29T02:50:26.922Z,101820.24
2018-06-29T02:53:29.341Z,101819.47
2018-06-29T02:56:32.643Z,101814.18
2018-06-29T02:59:36.954Z,101822.72
2018-06-29T03:02:39.015Z,101827.08
2018-06-29T03:05:41.305Z,101821.08
2018-06-29T03:08:43.465Z,101822.91
2018-06-29T03:11:45.519Z,101827.23
2018-06-29T03:14:48.024Z,101827.27
2018-06-29T03:17:50.092Z,101828.38
2018-06-29T03:20:52.467Z,101828.12
2018-06-29T03:23:54.618Z,101822.67
2018-06-29T03:26:56.596Z,101819.59
2018-06-29T03:29:59.119Z,101824.81
2018-06-29T03:33:03.084Z,101818.68
2018-06-29T03:36:05.148Z,101824.41
2018-06-29T03:39:08.554Z,101827.39
2018-06-29T03:42:11.708Z,101824.75
2018-06-29T03:45:14.158Z,101822.09
2018-06-29T03:48:16.242Z,101817.58
2018-06-29T03:51:18.252Z,101828.98
2018-06-29T03:54:20.352Z,101829.41
2018-06-29T03:57:22.406Z,101820.26
2018-06-29T04:00:24.679Z,101829.17
2018-06-29T04:03:26.813Z,101829.72
2018-06-29T04:06:29.380Z,101830.74
2018-06-29T04:09:32.837Z,101824.88
2018-06-29T04:12:35.094Z,101825.79
2018-06-29T04:15:37.443Z,101819.45
2018-06-29T04:18:40.887Z,101827.10
2018-06-29T04:21:42.951Z,101830.87
2018-06-29T04:24:45.435Z,101827.10
2018-06-29T04:27:47.474Z,101825.79
2018-06-29T04:30:49.518Z,101826.49
2018-06-29T04:33:51.845Z,101822.18
2018-06-29T04:36:53.965Z,101826.94
2018-06-29T04:39:55.979Z,101826.22
2018-06-29T04:42:58.566Z,101828.74
2018-06-29T04:46:00.652Z,101828.17
2018-06-29T04:49:03.184Z,101816.66
2018-06-29T04:52:06.869Z,101823.62
2018-06-29T04:55:09.211Z,101811.72
2018-06-29T04:58:11.617Z,101820.58
2018-06-29T05:01:13.751Z,101832.36
2018-06-29T05:04:16.118Z,101828.50
2018-06-29T05:07:18.167Z,101830.10
2018-06-29T05:10:20.251Z,101834.06
2018-06-29T05:13:22.305Z,101832.17
2018-06-29T05:16:24.731Z,101831.15
2018-06-29T05:19:26.768Z,101829.34
2018-06-29T05:22:28.849Z,101833.75
2018-06-29T05:25:31.232Z,101835.75
2018-06-29T05:28:34.828Z,101837.79
2018-06-29T05:31:37.842Z,101833.71
2018-06-29T05:34:40.195Z,101842.79
2018-06-29T05:37:43.343Z,101842.37
2018-06-29T05:40:45.856Z,101840.92
2018-06-29T05:43:48.325Z,101845.67
2018-06-29T05:47:21.650Z,101849.66
2018-06-29T05:50:23.990Z,101846.22
2018-06-29T05:53:26.303Z,101847.20
2018-06-29T05:56:28.476Z,101850.78
2018-06-29T05:59:30.487Z,101848.95
2018-06-29T06:02:32.694Z,101845.36
2018-06-29T06:05:34.976Z,101846.12
2018-06-29T06:08:37.459Z,101842.60
2018-06-29T06:11:40.139Z,101842.44
2018-06-29T06:14:42.620Z,101846.46
2018-06-29T06:17:44.610Z,101847.62
2018-06-29T06:20:46.671Z,101851.98
2018-06-29T06:23:48.724Z,101854.99
2018-06-29T06:26:51.091Z,101856.67
2018-06-29T06:29:53.176Z,101851.83
2018-06-29T06:32:55.213Z,101848.84
2018-06-29T06:35:57.586Z,101852.34
2018-06-29T06:38:59.755Z,101855.97
2018-06-29T06:42:02.150Z,101864.69
2018-06-29T06:45:05.253Z,101871.24
2018-06-29T06:48:07.315Z,101872.73
2018-06-29T06:51:09.336Z,101874.77
2018-06-29T06:54:11.559Z,101872.35
2018-06-29T06:57:13.825Z,101856.15
2018-06-29T07:00:16.390Z,101855.57
2018-06-29T07:03:18.648Z,101847.91
2018-06-29T07:06:20.965Z,101844.52
2018-06-29T07:09:22.902Z,101833.32
2018-06-29T07:12:25.070Z,101836.48
2018-06-29T07:15:27.117Z,101839.29
2018-06-29T07:18:29.527Z,101848.31
2018-06-29T07:21:32.049Z,101853.29
2018-06-29T07:24:35.590Z,101849.17
2018-06-29T07:27:38.130Z,101853.53
2018-06-29T07:30:40.658Z,101851.21
2018-06-29T07:33:42.631Z,101851.25
2018-06-29T07:36:45.140Z,101856.84
2018-06-29T07:39:47.704Z,101843.58
2018-06-29T07:42:49.681Z,101846.84
2018-06-29T07:45:52.160Z,101849.84
2018-06-29T07:48:55.176Z,101849.10
2018-06-29T07:51:57.289Z,101850.24
2018-06-29T07:54:59.783Z,101841.29
2018-06-29T07:58:02.187Z,101840.32
2018-06-29T08:01:05.866Z,101834.24
2018-06-29T08:04:08.297Z,101837.82
2018-06-29T08:07:11.240Z,101832.25
2018-06-29T08:10:13.719Z,101837.81
2018-06-29T08:13:15.876Z,101847.63
2018-06-29T08:16:18.290Z,101847.51
2018-06-29T08:19:20.373Z,101847.63
2018-06-29T08:22:22.426Z,101839.93
2018-06-29T08:25:24.917Z,101836.17
2018-06-29T08:28:27.246Z,101833.04
2018-06-29T08:31:29.883Z,101832.20
2018-06-29T08:34:32.110Z,101833.30
2018-06-29T08:37:36.295Z,101835.11
2018-06-29T08:40:38.560Z,101835.46
2018-06-29T08:43:41.046Z,101837.21
2018-06-29T08:46:43.168Z,101833.23
2018-06-29T08:49:45.570Z,101830.17
2018-06-29T08:52:48.052Z,101829.52
2018-06-29T08:55:50.100Z,101823.92
2018-06-29T08:58:52.806Z,101820.80
2018-06-29T09:01:55.165Z,101815.21
2018-06-29T09:04:57.630Z,101816.19
2018-06-29T09:08:00.187Z,101812.41
2018-06-29T09:11:02.319Z,101813.46
2018-06-29T09:14:05.604Z,101815.02
2018-06-29T09:17:08.571Z,101806.98
2018-06-29T09:20:10.747Z,101804.53
2018-06-29T09:23:13.321Z,101810.08
2018-06-29T09:26:15.823Z,101801.20
2018-06-29T09:29:18.362Z,101800.17
2018-06-29T09:32:20.852Z,101798.46
2018-06-29T09:35:24.387Z,101797.34
2018-06-29T09:38:26.879Z,101790.29
2018-06-29T09:41:29.388Z,101790.17
2018-06-29T09:44:31.961Z,101781.38
2018-06-29T09:47:35.851Z,101773.87
2018-06-29T09:50:38.384Z,101774.82
2018-06-29T09:53:40.457Z,101770.07
2018-06-29T09:56:42.958Z,101773.22
2018-06-29T09:59:45.426Z,101761.80
2018-06-29T10:02:49.036Z,101758.02
2018-06-29T10:05:51.600Z,101756.21
2018-06-29T10:08:54.070Z,101750.01
2018-06-29T10:11:56.057Z,101748.72
2018-06-29T10:14:59.931Z,101744.77
2018-06-29T10:18:02.128Z,101748.38
2018-06-29T10:21:04.464Z,101744.16
2018-06-29T10:24:06.567Z,101739.84
2018-06-29T10:27:08.620Z,101738.85
2018-06-29T10:30:10.555Z,101729.03
2018-06-29T10:33:12.715Z,101736.08
2018-06-29T10:36:14.811Z,101733.25
2018-06-29T10:39:17.923Z,101726.63
2018-06-29T10:42:19.996Z,101721.34
2018-06-29T10:45:22.085Z,101721.76
2018-06-29T10:48:24.367Z,101712.28
2018-06-29T10:51:26.416Z,101714.88
2018-06-29T10:54:28.502Z,101715.95
2018-06-29T10:57:30.573Z,101710.63
2018-06-29T11:00:34.200Z,101707.71
2018-06-29T11:03:36.672Z,101701.39
2018-06-29T11:06:38.827Z,101701.56
2018-06-29T11:09:40.923Z,101698.28
2018-06-29T11:12:43.064Z,101698.33
2018-06-29T11:15:45.219Z,101695.33
2018-06-29T11:18:47.307Z,101693.30
2018-06-29T11:21:53.146Z,101688.12
2018-06-29T11:24:55.345Z,101685.77
2018-06-29T11:27:57.515Z,101680.29
2018-06-29T11:31:00.085Z,101682.63
2018-06-29T11:34:02.357Z,101678.88
2018-06-29T11:37:04.903Z,101672.71
2018-06-29T11:40:08.183Z,101667.03
2018-06-29T11:43:10.304Z,101661.23
2018-06-29T11:46:12.443Z,101663.42
2018-06-29T11:52:16.290Z,101665.00
2018-06-29T11:55:18.499Z,101665.49
2018-06-29T11:58:20.582Z,101660.39
2018-06-29T12:01:22.782Z,101661.52
2018-06-29T12:04:25.005Z,101649.52
2018-06-29T12:07:26.963Z,101650.86
2018-06-29T12:10:29.148Z,101647.95
2018-06-29T12:13:31.237Z,101644.94
2018-06-29T12:16:34.358Z,101645.81
2018-06-29T12:19:36.371Z,101647.00
2018-06-29T12:22:38.438Z,101639.48
2018-06-29T12:25:40.480Z,101641.10
2018-06-29T12:28:42.594Z,101639.51
2018-06-29T12:31:44.700Z,101633.07
2018-06-29T12:34:47.089Z,101628.53
2018-06-29T12:37:49.185Z,101622.41
2018-06-29T12:40:51.263Z,101623.83
2018-06-29T12:43:53.408Z,101617.50
2018-06-29T12:46:55.589Z,101615.72
2018-06-29T12:49:57.657Z,101620.76
2018-06-29T12:53:00.668Z,101612.68
2018-06-29T12:56:02.851Z,101613.48
2018-06-29T12:59:06.021Z,101611.43
2018-06-29T13:02:09.112Z,101605.52
2018-06-29T13:05:11.222Z,101602.84
2018-06-29T13:08:13.319Z,101603.42
2018-06-29T13:11:15.508Z,101597.31
2018-06-29T13:14:18.124Z,101592.23
2018-06-29T13:17:20.169Z,101593.03
2018-06-29T13:20:23.277Z,101586.93
2018-06-29T13:23:26.556Z,101588.93
2018-06-29T13:26:28.642Z,101591.12
2018-06-29T13:29:31.734Z,101591.41
2018-06-29T13:32:33.927Z,101591.17
2018-06-29T13:35:35.980Z,101595.62
2018-06-29T13:38:38.076Z,101593.64
2018-06-29T13:41:40.122Z,101582.82
2018-06-29T13:44:42.173Z,101576.29
2018-06-29T13:47:46.304Z,101567.59
2018-06-29T13:50:48.276Z,101570.05
2018-06-29T13:53:50.520Z,101565.53
2018-06-29T13:56:52.613Z,101567.32
2018-06-29T13:59:54.677Z,101562.30
2018-06-29T14:02:56.736Z,101552.49
2018-06-29T14:05:58.815Z,101543.62
2018-06-29T14:09:01.945Z,101539.60
2018-06-29T14:12:04.154Z,101539.48
2018-06-29T14:15:07.111Z,101539.41
2018-06-29T14:18:09.335Z,101539.21
2018-06-29T14:21:11.332Z,101532.12
2018-06-29T14:24:17.840Z,101522.47
2018-06-29T14:27:20.227Z,101520.15
2018-06-29T14:30:22.304Z,101516.52
2018-06-29T14:33:24.540Z,101522.47
2018-06-29T14:36:26.475Z,101523.69
2018-06-29T14:39:28.511Z,101521.95
2018-06-29T14:42:32.901Z,101522.62
2018-06-29T14:45:36.079Z,101523.94
2018-06-29T14:48:38.043Z,101520.76
2018-06-29T14:51:40.146Z,101518.82
2018-06-29T14:54:42.214Z,101521.66
2018-06-29T14:57:44.341Z,101510.78
2018-06-29T15:00:46.401Z,101505.60
2018-06-29T15:03:48.584Z,101509.00
2018-06-29T15:06:50.552Z,101508.77
2018-06-29T15:09:53.622Z,101509.77
2018-06-29T15:12:55.700Z,101498.71
2018-06-29T15:15:57.856Z,101497.79
2018-06-29T15:18:59.947Z,101491.84
2018-06-29T15:22:03.416Z,101485.33
2018-06-29T15:25:05.567Z,101479.40
2018-06-29T15:28:07.673Z,101480.20
2018-06-29T15:31:09.655Z,101482.19
2018-06-29T15:34:11.730Z,101473.93
2018-06-29T15:37:13.893Z,101471.86
2018-06-29T15:40:15.895Z,101467.47
2018-06-29T15:43:18.063Z,101469.92
2018-06-29T15:46:20.079Z,101469.66
2018-06-29T15:49:22.145Z,101467.93
2018-06-29T15:52:24.194Z,101471.15
2018-06-29T15:55:26.349Z,101466.55
2018-06-29T15:58:29.651Z,101465.16
2018-06-29T16:01:32.703Z,101466.89
2018-06-29T16:04:34.740Z,101466.81
2018-06-29T16:07:36.814Z,101463.60
2018-06-29T16:10:38.808Z,101457.61
2018-06-29T16:13:40.964Z,101459.11
2018-06-29T16:16:43.118Z,101450.82
2018-06-29T16:19:45.220Z,101451.96
2018-06-29T16:22:47.256Z,101454.21
2018-06-29T16:25:49.362Z,101449.10
2018-06-29T16:28:51.397Z,101442.55
2018-06-29T16:31:59.316Z,101441.48
2018-06-29T16:35:02.511Z,101442.46
2018-06-29T16:38:06.827Z,101439.42
2018-06-29T16:41:08.994Z,101435.89
2018-06-29T16:44:11.061Z,101439.63
2018-06-29T16:47:13.155Z,101438.37
2018-06-29T16:50:15.208Z,101441.82
2018-06-29T16:53:17.570Z,101437.12
2018-06-29T16:56:19.919Z,101434.39
2018-06-29T16:59:22.021Z,101437.32
2018-06-29T17:02:24.142Z,101441.59
2018-06-29T17:05:26.311Z,101436.10
2018-06-29T17:08:28.320Z,101440.07
2018-06-29T17:11:30.499Z,101445.20
2018-06-29T17:14:33.211Z,101443.12
2018-06-29T17:17:35.704Z,101436.53
2018-06-29T17:20:37.727Z,101440.34
2018-06-29T17:23:39.957Z,101441.28
2018-06-29T17:26:42.247Z,101440.34
2018-06-29T17:29:44.374Z,101438.86
2018-06-29T17:32:46.463Z,101439.22
2018-06-29T17:35:48.668Z,101438.80
2018-06-29T17:38:50.891Z,101443.10
2018-06-29T17:41:53.979Z,101444.31
2018-06-29T17:44:56.064Z,101440.35
2018-06-29T17:47:58.400Z,101445.46
2018-06-29T17:51:00.487Z,101443.19
2018-06-29T17:54:02.912Z,101442.37
2018-06-29T17:57:05.121Z,101439.13
2018-06-29T18:00:07.269Z,101439.64
2018-06-29T18:03:09.348Z,101442.40
2018-06-29T18:06:11.589Z,101448.15
2018-06-29T18:09:13.667Z,101448.32
2018-06-29T18:12:15.632Z,101448.94
2018-06-29T18:15:17.799Z,101450.27
2018-06-29T18:18:19.869Z,101447.07
2018-06-29T18:21:23.107Z,101447.06
2018-06-29T18:24:25.563Z,101447.71
2018-06-29T18:27:27.668Z,101442.54
2018-06-29T18:30:30.779Z,101441.96
2018-06-29T18:33:32.845Z,101436.96
2018-06-29T18:36:34.962Z,101441.75
2018-06-29T18:39:40.957Z,101440.92
2018-06-29T18:42:43.234Z,101438.88
2018-06-29T18:45:45.341Z,101440.84
2018-06-29T18:48:49.111Z,101442.25
2018-06-29T18:51:52.396Z,101442.90
2018-06-29T18:54:54.523Z,101442.17
2018-06-29T18:57:56.622Z,101437.27
2018-06-29T19:00:58.699Z,101439.06
2018-06-29T19:04:01.253Z,101437.45
2018-06-29T19:07:03.431Z,101436.47
2018-06-29T19:10:05.527Z,101442.00
2018-06-29T19:13:07.623Z,101444.44
2018-06-29T19:16:10.735Z,101450.59
2018-06-29T19:19:12.872Z,101447.77
2018-06-29T19:22:14.832Z,101447.50
2018-06-29T19:25:16.976Z,101449.42
2018-06-29T19:28:19.125Z,101449.97
2018-06-29T19:31:21.955Z,101455.72
2018-06-29T19:34:23.879Z,101457.28
2018-06-29T19:37:25.883Z,101463.93
2018-06-29T19:40:27.944Z,101464.48
2018-06-29T19:43:30.039Z,101464.71
2018-06-29T19:46:32.089Z,101470.29
2018-06-29T19:49:34.185Z,101469.91
2018-06-29T19:52:36.161Z,101470.80
2018-06-29T19:55:39.039Z,101471.57
2018-06-29T19:58:41.376Z,101475.87
2018-06-29T20:01:43.478Z,101482.74
2018-06-29T20:04:45.506Z,101481.74
2018-06-29T20:07:47.518Z,101480.52
2018-06-29T20:10:49.606Z,101481.50
2018-06-29T20:13:51.664Z,101485.62
2018-06-29T20:16:53.662Z,101484.23
2018-06-29T20:19:55.720Z,101491.18
2018-06-29T20:22:57.923Z,101492.46
2018-06-29T20:26:00.160Z,101496.64
2018-06-29T20:29:02.136Z,101494.36
2018-06-29T20:32:04.353Z,101493.90
2018-06-29T20:35:06.689Z,101494.14
2018-06-29T20:38:08.750Z,101497.12
2018-06-29T20:41:10.928Z,101494.35
2018-06-29T20:44:12.966Z,101497.92
2018-06-29T20:47:15.027Z,101498.38
2018-06-29T20:50:18.270Z,101502.42
2018-06-29T20:53:20.392Z,101506.38
2018-06-29T20:56:22.560Z,101502.63
2018-06-29T20:59:24.660Z,101501.90
2018-06-29T21:02:26.744Z,101503.87
2018-06-29T21:05:28.882Z,101504.11
2018-06-29T21:08:30.980Z,101506.87
2018-06-29T21:11:33.040Z,101505.64
2018-06-29T21:14:35.017Z,101507.12
2018-06-29T21:17:37.141Z,101500.32
2018-06-29T21:20:39.652Z,101503.83
2018-06-29T21:23:42.128Z,101505.35
2018-06-29T21:26:44.195Z,101505.37
2018-06-29T21:29:47.947Z,101511.55
2018-06-29T21:32:49.962Z,101506.58
2018-06-29T21:35:51.926Z,101510.93
2018-06-29T21:38:53.979Z,101513.99
2018-06-29T21:41:56.067Z,101513.45
2018-06-29T21:44:58.169Z,101511.62
2018-06-29T21:48:00.107Z,101509.90
2018-06-29T21:51:02.207Z,101512.34
2018-06-29T21:54:04.267Z,101515.95
2018-06-29T21:57:06.344Z,101520.89
2018-06-29T22:00:10.124Z,101518.28
2018-06-29T22:03:12.860Z,101514.81
2018-06-29T22:06:14.809Z,101513.82
2018-06-29T22:09:17.495Z,101515.58
2018-06-29T22:12:19.668Z,101511.60
2018-06-29T22:15:24.048Z,101510.57
2018-06-29T22:18:26.040Z,101507.52
2018-06-29T22:21:33.345Z,101504.28
2018-06-29T22:24:35.405Z,101506.11
2018-06-29T22:27:37.485Z,101506.71
2018-06-29T22:30:39.524Z,101503.55
2018-06-29T22:33:41.640Z,101505.85
2018-06-29T22:36:45.728Z,101503.09
2018-06-29T22:39:48.327Z,101501.38
2018-06-29T22:42:50.399Z,101498.48
2018-06-29T22:45:52.563Z,101503.59
2018-06-29T22:48:54.760Z,101512.73
2018-06-29T22:51:57.832Z,101502.09
2018-06-29T22:54:59.915Z,101502.02
2018-06-29T22:58:01.985Z,101501.85
2018-06-29T23:01:04.095Z,101505.36
2018-06-29T23:04:06.211Z,101501.27
2018-06-29T23:07:08.357Z,101492.46
2018-06-29T23:10:10.372Z,101498.59
2018-06-29T23:13:12.468Z,101499.36
2018-06-29T23:16:14.517Z,101497.23
2018-06-29T23:19:17.076Z,101494.25
2018-06-29T23:22:19.149Z,101496.52
2018-06-29T23:25:42.196Z,101501.73
2018-06-29T23:28:44.297Z,101500.21
2018-06-29T23:31:46.423Z,101499.72
2018-06-29T23:34:48.490Z,101494.37
2018-06-29T23:37:50.546Z,101490.73
2018-06-29T23:40:52.840Z,101498.82
2018-06-29T23:43:54.939Z,101497.09
2018-06-29T23:46:58.045Z,101498.39
2018-06-29T23:50:00.012Z,101498.69
2018-06-29T23:53:03.164Z,101498.53
2018-06-29T23:56:05.288Z,101495.00
2018-06-29T23:59:07.478Z,101495.93
